sensor_id;sensor_type;location;lat;lon;timestamp;pressure;altitude;pressure_sealevel;temperature
11926;BMP180;6022;48.768;18.608;2023-06-22T00:02:15;98649.72;;;20.16
11926;BMP180;6022;48.768;18.608;2023-06-22T00:04:53;98646.81;;;20.19
11926;BMP180;6022;48.768;18.608;2023-06-22T00:07:20;98643.44;;;20.18
11926;BMP180;6022;48.768;18.608;2023-06-22T00:09:49;98651.31;;;20.17
11926;BMP180;6022;48.768;18.608;2023-06-22T00:12:20;98642.94;;;20.15
11926;BMP180;6022;48.768;18.608;2023-06-22T00:14:47;98649.34;;;20.11
11926;BMP180;6022;48.768;18.608;2023-06-22T00:17:14;98657.97;;;20.02
11926;BMP180;6022;48.768;18.608;2023-06-22T00:19:42;98663.19;;;20.10
11926;BMP180;6022;48.768;18.608;2023-06-22T00:22:09;98670.91;;;20.10
11926;BMP180;6022;48.768;18.608;2023-06-22T00:24:37;98675.78;;;20.13
11926;BMP180;6022;48.768;18.608;2023-06-22T00:27:04;98685.03;;;20.06
11926;BMP180;6022;48.768;18.608;2023-06-22T00:29:47;98688.50;;;20.14
11926;BMP180;6022;48.768;18.608;2023-06-22T00:32:18;98698.81;;;20.14
11926;BMP180;6022;48.768;18.608;2023-06-22T00:34:51;98695.56;;;20.12
11926;BMP180;6022;48.768;18.608;2023-06-22T00:37:24;98697.50;;;20.10
11926;BMP180;6022;48.768;18.608;2023-06-22T00:39:54;98691.81;;;20.07
11926;BMP180;6022;48.768;18.608;2023-06-22T00:42:29;98706.41;;;20.16
11926;BMP180;6022;48.768;18.608;2023-06-22T00:44:58;98709.03;;;20.24
11926;BMP180;6022;48.768;18.608;2023-06-22T00:47:27;98709.69;;;20.26
11926;BMP180;6022;48.768;18.608;2023-06-22T00:49:56;98713.88;;;20.27
11926;BMP180;6022;48.768;18.608;2023-06-22T00:52:38;98722.94;;;20.31
11926;BMP180;6022;48.768;18.608;2023-06-22T00:55:20;98732.28;;;20.32
11926;BMP180;6022;48.768;18.608;2023-06-22T00:57:58;98723.88;;;20.30
11926;BMP180;6022;48.768;18.608;2023-06-22T01:00:34;98717.09;;;20.29
11926;BMP180;6022;48.768;18.608;2023-06-22T01:03:03;98727.13;;;20.32
11926;BMP180;6022;48.768;18.608;2023-06-22T01:05:32;98724.41;;;20.33
11926;BMP180;6022;48.768;18.608;2023-06-22T01:11:41;98704.91;;;20.31
11926;BMP180;6022;48.768;18.608;2023-06-22T01:14:23;98714.53;;;20.29
11926;BMP180;6022;48.768;18.608;2023-06-22T01:16:57;98716.44;;;20.27
11926;BMP180;6022;48.768;18.608;2023-06-22T01:22:03;98714.31;;;20.22
11926;BMP180;6022;48.768;18.608;2023-06-22T01:27:33;98707.72;;;20.20
11926;BMP180;6022;48.768;18.608;2023-06-22T01:30:05;98718.31;;;20.17
11926;BMP180;6022;48.768;18.608;2023-06-22T01:32:36;98705.88;;;20.12
11926;BMP180;6022;48.768;18.608;2023-06-22T01:35:07;98706.97;;;20.10
11926;BMP180;6022;48.768;18.608;2023-06-22T01:37:37;98695.53;;;20.05
11926;BMP180;6022;48.768;18.608;2023-06-22T01:40:07;98697.56;;;20.01
11926;BMP180;6022;48.768;18.608;2023-06-22T01:42:37;98683.06;;;20.00
11926;BMP180;6022;48.768;18.608;2023-06-22T01:45:07;98680.81;;;19.97
11926;BMP180;6022;48.768;18.608;2023-06-22T01:47:34;98673.50;;;19.93
11926;BMP180;6022;48.768;18.608;2023-06-22T01:50:05;98671.06;;;19.91
11926;BMP180;6022;48.768;18.608;2023-06-22T01:52:34;98676.81;;;19.85
11926;BMP180;6022;48.768;18.608;2023-06-22T01:55:03;98681.72;;;19.79
11926;BMP180;6022;48.768;18.608;2023-06-22T01:57:33;98679.44;;;19.76
11926;BMP180;6022;48.768;18.608;2023-06-22T02:00:11;98677.88;;;19.48
11926;BMP180;6022;48.768;18.608;2023-06-22T02:03:07;98685.16;;;19.35
11926;BMP180;6022;48.768;18.608;2023-06-22T02:05:54;98685.81;;;19.37
11926;BMP180;6022;48.768;18.608;2023-06-22T02:08:40;98682.94;;;19.40
11926;BMP180;6022;48.768;18.608;2023-06-22T02:11:18;98684.44;;;19.43
11926;BMP180;6022;48.768;18.608;2023-06-22T02:13:55;98671.13;;;19.47
11926;BMP180;6022;48.768;18.608;2023-06-22T02:16:26;98681.94;;;19.51
11926;BMP180;6022;48.768;18.608;2023-06-22T02:18:57;98680.69;;;19.55
11926;BMP180;6022;48.768;18.608;2023-06-22T02:21:30;98681.03;;;19.42
11926;BMP180;6022;48.768;18.608;2023-06-22T02:23:58;98673.97;;;19.44
11926;BMP180;6022;48.768;18.608;2023-06-22T02:26:28;98685.09;;;19.45
11926;BMP180;6022;48.768;18.608;2023-06-22T02:28:57;98695.47;;;19.53
11926;BMP180;6022;48.768;18.608;2023-06-22T02:31:28;98691.13;;;19.53
11926;BMP180;6022;48.768;18.608;2023-06-22T02:34:01;98697.25;;;19.52
11926;BMP180;6022;48.768;18.608;2023-06-22T02:36:34;98689.81;;;19.49
11926;BMP180;6022;48.768;18.608;2023-06-22T02:39:10;98695.47;;;19.53
11926;BMP180;6022;48.768;18.608;2023-06-22T02:41:38;98697.66;;;19.48
11926;BMP180;6022;48.768;18.608;2023-06-22T02:44:06;98707.00;;;19.32
11926;BMP180;6022;48.768;18.608;2023-06-22T02:46:46;98716.44;;;19.31
11926;BMP180;6022;48.768;18.608;2023-06-22T02:49:21;98716.19;;;19.34
11926;BMP180;6022;48.768;18.608;2023-06-22T02:51:51;98718.13;;;19.23
11926;BMP180;6022;48.768;18.608;2023-06-22T02:54:29;98721.50;;;19.23
11926;BMP180;6022;48.768;18.608;2023-06-22T03:29:26;98724.00;;;19.15
11926;BMP180;6022;48.768;18.608;2023-06-22T03:32:03;98731.13;;;19.21
11926;BMP180;6022;48.768;18.608;2023-06-22T03:34:34;98728.84;;;19.18
11926;BMP180;6022;48.768;18.608;2023-06-22T03:37:07;98735.34;;;19.13
11926;BMP180;6022;48.768;18.608;2023-06-22T03:39:50;98729.03;;;19.07
11926;BMP180;6022;48.768;18.608;2023-06-22T03:42:24;98730.53;;;19.00
11926;BMP180;6022;48.768;18.608;2023-06-22T03:45:07;98735.56;;;19.02
11926;BMP180;6022;48.768;18.608;2023-06-22T03:47:35;98732.69;;;18.95
11926;BMP180;6022;48.768;18.608;2023-06-22T03:50:02;98736.09;;;19.05
11926;BMP180;6022;48.768;18.608;2023-06-22T03:52:51;98728.38;;;19.05
11926;BMP180;6022;48.768;18.608;2023-06-22T03:55:22;98718.53;;;19.18
11926;BMP180;6022;48.768;18.608;2023-06-22T03:57:50;98725.56;;;19.52
11926;BMP180;6022;48.768;18.608;2023-06-22T04:00:17;98721.16;;;19.79
11926;BMP180;6022;48.768;18.608;2023-06-22T04:02:45;98735.00;;;20.30
11926;BMP180;6022;48.768;18.608;2023-06-22T04:05:12;98728.97;;;20.64
11926;BMP180;6022;48.768;18.608;2023-06-22T04:07:40;98724.97;;;20.87
11926;BMP180;6022;48.768;18.608;2023-06-22T04:10:07;98725.31;;;21.00
11926;BMP180;6022;48.768;18.608;2023-06-22T04:12:38;98713.44;;;20.56
11926;BMP180;6022;48.768;18.608;2023-06-22T04:15:06;98714.09;;;20.58
11926;BMP180;6022;48.768;18.608;2023-06-22T04:17:37;98716.00;;;20.56
11926;BMP180;6022;48.768;18.608;2023-06-22T04:20:08;98718.25;;;20.51
11926;BMP180;6022;48.768;18.608;2023-06-22T04:22:36;98718.53;;;20.48
11926;BMP180;6022;48.768;18.608;2023-06-22T04:25:08;98715.59;;;20.44
11926;BMP180;6022;48.768;18.608;2023-06-22T04:27:35;98709.50;;;20.45
11926;BMP180;6022;48.768;18.608;2023-06-22T04:30:13;98714.81;;;20.43
11926;BMP180;6022;48.768;18.608;2023-06-22T04:32:43;98716.97;;;20.30
11926;BMP180;6022;48.768;18.608;2023-06-22T04:35:12;98712.06;;;20.87
11926;BMP180;6022;48.768;18.608;2023-06-22T04:37:39;98724.66;;;21.64
11926;BMP180;6022;48.768;18.608;2023-06-22T04:40:08;98721.47;;;22.49
11926;BMP180;6022;48.768;18.608;2023-06-22T04:42:50;98717.53;;;22.84
11926;BMP180;6022;48.768;18.608;2023-06-22T04:46:11;98717.16;;;23.79
11926;BMP180;6022;48.768;18.608;2023-06-22T04:48:40;98726.53;;;23.50
11926;BMP180;6022;48.768;18.608;2023-06-22T04:51:07;98730.31;;;24.00
11926;BMP180;6022;48.768;18.608;2023-06-22T04:53:36;98729.50;;;24.95
11926;BMP180;6022;48.768;18.608;2023-06-22T04:56:06;98745.25;;;26.06
11926;BMP180;6022;48.768;18.608;2023-06-22T04:58:33;98741.13;;;26.80
11926;BMP180;6022;48.768;18.608;2023-06-22T05:01:03;98729.50;;;26.56
11926;BMP180;6022;48.768;18.608;2023-06-22T05:03:31;98728.25;;;26.45
11926;BMP180;6022;48.768;18.608;2023-06-22T05:05:59;98725.84;;;25.53
11926;BMP180;6022;48.768;18.608;2023-06-22T05:08:36;98723.25;;;25.67
11926;BMP180;6022;48.768;18.608;2023-06-22T05:11:10;98733.44;;;26.72
11926;BMP180;6022;48.768;18.608;2023-06-22T05:13:38;98723.56;;;27.69
11926;BMP180;6022;48.768;18.608;2023-06-22T05:16:07;98723.78;;;27.27
11926;BMP180;6022;48.768;18.608;2023-06-22T05:18:35;98710.19;;;27.97
11926;BMP180;6022;48.768;18.608;2023-06-22T05:21:04;98711.56;;;27.87
11926;BMP180;6022;48.768;18.608;2023-06-22T05:23:31;98723.78;;;27.80
11926;BMP180;6022;48.768;18.608;2023-06-22T05:26:02;98714.47;;;28.62
11926;BMP180;6022;48.768;18.608;2023-06-22T05:28:29;98710.44;;;28.47
11926;BMP180;6022;48.768;18.608;2023-06-22T05:30:59;98710.03;;;28.50
11926;BMP180;6022;48.768;18.608;2023-06-22T05:33:27;98723.31;;;29.93
11926;BMP180;6022;48.768;18.608;2023-06-22T05:35:54;98737.47;;;29.67
11926;BMP180;6022;48.768;18.608;2023-06-22T05:38:21;98731.31;;;28.73
11926;BMP180;6022;48.768;18.608;2023-06-22T05:40:51;98733.63;;;29.32
11926;BMP180;6022;48.768;18.608;2023-06-22T05:43:19;98739.41;;;30.51
11926;BMP180;6022;48.768;18.608;2023-06-22T05:45:46;98733.97;;;30.53
11926;BMP180;6022;48.768;18.608;2023-06-22T05:48:13;98731.66;;;30.39
11926;BMP180;6022;48.768;18.608;2023-06-22T05:50:41;98736.09;;;30.62
11926;BMP180;6022;48.768;18.608;2023-06-22T05:53:09;98724.53;;;31.12
11926;BMP180;6022;48.768;18.608;2023-06-22T05:55:36;98724.44;;;31.18
11926;BMP180;6022;48.768;18.608;2023-06-22T05:58:04;98720.59;;;30.79
11926;BMP180;6022;48.768;18.608;2023-06-22T06:00:31;98708.38;;;31.15
11926;BMP180;6022;48.768;18.608;2023-06-22T06:02:59;98707.91;;;30.82
11926;BMP180;6022;48.768;18.608;2023-06-22T06:05:32;98712.22;;;30.70
11926;BMP180;6022;48.768;18.608;2023-06-22T06:08:01;98722.84;;;32.40
11926;BMP180;6022;48.768;18.608;2023-06-22T06:10:29;98727.31;;;33.08
11926;BMP180;6022;48.768;18.608;2023-06-22T06:13:00;98727.59;;;33.34
11926;BMP180;6022;48.768;18.608;2023-06-22T06:15:32;98727.22;;;33.81
11926;BMP180;6022;48.768;18.608;2023-06-22T06:17:59;98724.06;;;33.67
11926;BMP180;6022;48.768;18.608;2023-06-22T06:20:28;98724.06;;;33.67
11926;BMP180;6022;48.768;18.608;2023-06-22T06:22:56;98725.50;;;33.75
11926;BMP180;6022;48.768;18.608;2023-06-22T06:25:23;98726.19;;;34.09
11926;BMP180;6022;48.768;18.608;2023-06-22T06:27:51;98720.78;;;32.76
11926;BMP180;6022;48.768;18.608;2023-06-22T06:30:22;98714.50;;;32.66
11926;BMP180;6022;48.768;18.608;2023-06-22T06:32:50;98721.09;;;33.36
11926;BMP180;6022;48.768;18.608;2023-06-22T06:35:18;98725.94;;;34.11
11926;BMP180;6022;48.768;18.608;2023-06-22T06:37:48;98730.06;;;33.91
11926;BMP180;6022;48.768;18.608;2023-06-22T06:40:18;98725.97;;;33.83
11926;BMP180;6022;48.768;18.608;2023-06-22T06:42:48;98729.81;;;32.46
11926;BMP180;6022;48.768;18.608;2023-06-22T06:45:22;98731.44;;;33.04
11926;BMP180;6022;48.768;18.608;2023-06-22T06:47:51;98733.09;;;33.99
11926;BMP180;6022;48.768;18.608;2023-06-22T06:50:20;98724.25;;;33.77
11926;BMP180;6022;48.768;18.608;2023-06-22T06:52:47;98728.16;;;34.46
11926;BMP180;6022;48.768;18.608;2023-06-22T06:55:14;98730.28;;;35.19
11926;BMP180;6022;48.768;18.608;2023-06-22T06:57:42;98720.41;;;33.68
11926;BMP180;6022;48.768;18.608;2023-06-22T07:00:12;98724.94;;;34.61
11926;BMP180;6022;48.768;18.608;2023-06-22T07:02:45;98722.81;;;35.11
11926;BMP180;6022;48.768;18.608;2023-06-22T07:05:14;98722.81;;;35.11
11926;BMP180;6022;48.768;18.608;2023-06-22T07:07:41;98724.03;;;35.68
11926;BMP180;6022;48.768;18.608;2023-06-22T07:10:10;98708.94;;;34.18
11926;BMP180;6022;48.768;18.608;2023-06-22T07:12:37;98708.06;;;34.13
11926;BMP180;6022;48.768;18.608;2023-06-22T07:15:08;98701.75;;;34.30
11926;BMP180;6022;48.768;18.608;2023-06-22T07:17:39;98705.50;;;34.18
11926;BMP180;6022;48.768;18.608;2023-06-22T07:20:11;98699.59;;;34.11
11926;BMP180;6022;48.768;18.608;2023-06-22T07:22:44;98709.22;;;33.11
11926;BMP180;6022;48.768;18.608;2023-06-22T07:25:14;98706.56;;;33.11
11926;BMP180;6022;48.768;18.608;2023-06-22T07:28:07;98706.44;;;33.68
11926;BMP180;6022;48.768;18.608;2023-06-22T07:30:34;98703.38;;;34.47
11926;BMP180;6022;48.768;18.608;2023-06-22T07:33:07;98699.06;;;34.41
11926;BMP180;6022;48.768;18.608;2023-06-22T07:35:36;98703.03;;;34.60
11926;BMP180;6022;48.768;18.608;2023-06-22T07:38:03;98686.59;;;32.99
11926;BMP180;6022;48.768;18.608;2023-06-22T07:40:33;98691.66;;;34.38
11926;BMP180;6022;48.768;18.608;2023-06-22T07:43:01;98678.03;;;34.63
11926;BMP180;6022;48.768;18.608;2023-06-22T07:45:31;98685.22;;;34.02
11926;BMP180;6022;48.768;18.608;2023-06-22T07:48:02;98684.13;;;35.43
11926;BMP180;6022;48.768;18.608;2023-06-22T07:50:33;98679.97;;;35.99
11926;BMP180;6022;48.768;18.608;2023-06-22T07:53:01;98681.91;;;36.40
11926;BMP180;6022;48.768;18.608;2023-06-22T07:55:28;98675.13;;;36.18
11926;BMP180;6022;48.768;18.608;2023-06-22T07:57:56;98683.06;;;33.99
11926;BMP180;6022;48.768;18.608;2023-06-22T08:00:29;98687.44;;;35.55
11926;BMP180;6022;48.768;18.608;2023-06-22T08:02:56;98670.75;;;35.28
11926;BMP180;6022;48.768;18.608;2023-06-22T08:05:23;98670.28;;;34.72
11926;BMP180;6022;48.768;18.608;2023-06-22T08:07:51;98675.19;;;35.23
11926;BMP180;6022;48.768;18.608;2023-06-22T08:10:20;98675.59;;;36.46
11926;BMP180;6022;48.768;18.608;2023-06-22T08:12:48;98668.84;;;35.97
11926;BMP180;6022;48.768;18.608;2023-06-22T08:15:15;98665.06;;;36.92
11926;BMP180;6022;48.768;18.608;2023-06-22T08:17:44;98663.78;;;37.04
11926;BMP180;6022;48.768;18.608;2023-06-22T08:20:12;98663.16;;;35.32
11926;BMP180;6022;48.768;18.608;2023-06-22T08:22:42;98662.84;;;35.28
11926;BMP180;6022;48.768;18.608;2023-06-22T08:25:10;98659.69;;;35.79
11926;BMP180;6022;48.768;18.608;2023-06-22T08:27:38;98662.03;;;35.49
11926;BMP180;6022;48.768;18.608;2023-06-22T08:30:07;98669.13;;;34.85
11926;BMP180;6022;48.768;18.608;2023-06-22T08:32:38;98668.13;;;33.60
11926;BMP180;6022;48.768;18.608;2023-06-22T08:35:05;98664.56;;;33.39
11926;BMP180;6022;48.768;18.608;2023-06-22T08:37:36;98671.16;;;33.53
11926;BMP180;6022;48.768;18.608;2023-06-22T08:40:07;98664.13;;;34.67
11926;BMP180;6022;48.768;18.608;2023-06-22T08:42:40;98659.59;;;35.69
11926;BMP180;6022;48.768;18.608;2023-06-22T08:45:09;98659.13;;;36.65
11926;BMP180;6022;48.768;18.608;2023-06-22T08:47:41;98666.50;;;37.09
11926;BMP180;6022;48.768;18.608;2023-06-22T08:50:11;98664.38;;;37.11
11926;BMP180;6022;48.768;18.608;2023-06-22T08:52:40;98660.69;;;37.12
11926;BMP180;6022;48.768;18.608;2023-06-22T08:55:10;98665.25;;;37.36
11926;BMP180;6022;48.768;18.608;2023-06-22T08:57:38;98652.38;;;37.79
11926;BMP180;6022;48.768;18.608;2023-06-22T09:00:09;98653.50;;;38.03
11926;BMP180;6022;48.768;18.608;2023-06-22T09:02:44;98654.78;;;37.00
11926;BMP180;6022;48.768;18.608;2023-06-22T09:05:15;98650.50;;;35.60
11926;BMP180;6022;48.768;18.608;2023-06-22T09:07:55;98649.34;;;35.72
11926;BMP180;6022;48.768;18.608;2023-06-22T09:10:23;98648.34;;;36.81
11926;BMP180;6022;48.768;18.608;2023-06-22T09:12:51;98648.03;;;37.34
11926;BMP180;6022;48.768;18.608;2023-06-22T09:15:21;98649.47;;;37.85
11926;BMP180;6022;48.768;18.608;2023-06-22T09:17:48;98645.50;;;37.78
11926;BMP180;6022;48.768;18.608;2023-06-22T09:20:15;98639.91;;;36.43
11926;BMP180;6022;48.768;18.608;2023-06-22T09:22:43;98648.41;;;36.91
11926;BMP180;6022;48.768;18.608;2023-06-22T09:25:10;98647.53;;;37.42
11926;BMP180;6022;48.768;18.608;2023-06-22T09:27:40;98649.28;;;36.25
11926;BMP180;6022;48.768;18.608;2023-06-22T09:30:11;98641.03;;;37.03
11926;BMP180;6022;48.768;18.608;2023-06-22T09:32:41;98646.59;;;38.02
11926;BMP180;6022;48.768;18.608;2023-06-22T09:35:14;98640.47;;;38.41
11926;BMP180;6022;48.768;18.608;2023-06-22T09:37:46;98631.19;;;38.28
11926;BMP180;6022;48.768;18.608;2023-06-22T09:40:27;98641.28;;;38.26
11926;BMP180;6022;48.768;18.608;2023-06-22T09:43:06;98636.50;;;38.09
11926;BMP180;6022;48.768;18.608;2023-06-22T09:45:36;98630.66;;;37.67
11926;BMP180;6022;48.768;18.608;2023-06-22T09:48:11;98632.25;;;37.73
11926;BMP180;6022;48.768;18.608;2023-06-22T09:50:40;98628.22;;;37.51
11926;BMP180;6022;48.768;18.608;2023-06-22T09:53:16;98631.72;;;37.66
11926;BMP180;6022;48.768;18.608;2023-06-22T09:55:43;98633.25;;;37.47
11926;BMP180;6022;48.768;18.608;2023-06-22T09:58:20;98635.69;;;37.59
11926;BMP180;6022;48.768;18.608;2023-06-22T10:00:50;98636.50;;;37.64
11926;BMP180;6022;48.768;18.608;2023-06-22T10:03:21;98638.88;;;37.76
11926;BMP180;6022;48.768;18.608;2023-06-22T10:05:51;98638.09;;;37.70
11926;BMP180;6022;48.768;18.608;2023-06-22T10:08:33;98642.03;;;37.68
11926;BMP180;6022;48.768;18.608;2023-06-22T10:11:07;98638.09;;;37.90
11926;BMP180;6022;48.768;18.608;2023-06-22T10:13:35;98632.53;;;37.82
11926;BMP180;6022;48.768;18.608;2023-06-22T10:16:02;98638.06;;;37.60
11926;BMP180;6022;48.768;18.608;2023-06-22T10:18:32;98629.78;;;37.47
11926;BMP180;6022;48.768;18.608;2023-06-22T10:21:00;98629.06;;;37.66
11926;BMP180;6022;48.768;18.608;2023-06-22T10:23:27;98633.84;;;37.89
11926;BMP180;6022;48.768;18.608;2023-06-22T10:25:58;98621.66;;;37.78
11926;BMP180;6022;48.768;18.608;2023-06-22T10:28:26;98619.44;;;37.36
11926;BMP180;6022;48.768;18.608;2023-06-22T10:30:57;98618.38;;;37.32
11926;BMP180;6022;48.768;18.608;2023-06-22T10:33:26;98621.03;;;37.37
11926;BMP180;6022;48.768;18.608;2023-06-22T10:35:58;98614.41;;;37.29
11926;BMP180;6022;48.768;18.608;2023-06-22T10:38:28;98616.03;;;37.40
11926;BMP180;6022;48.768;18.608;2023-06-22T10:40:56;98613.06;;;37.27
11926;BMP180;6022;48.768;18.608;2023-06-22T10:43:25;98620.19;;;37.16
11926;BMP180;6022;48.768;18.608;2023-06-22T10:45:52;98614.41;;;37.19
11926;BMP180;6022;48.768;18.608;2023-06-22T10:48:20;98602.47;;;37.17
11926;BMP180;6022;48.768;18.608;2023-06-22T10:50:47;98609.31;;;37.13
11926;BMP180;6022;48.768;18.608;2023-06-22T10:53:15;98607.94;;;36.50
11926;BMP180;6022;48.768;18.608;2023-06-22T10:55:45;98606.31;;;36.44
11926;BMP180;6022;48.768;18.608;2023-06-22T10:58:23;98601.03;;;36.39
11926;BMP180;6022;48.768;18.608;2023-06-22T11:00:54;98607.00;;;36.70
11926;BMP180;6022;48.768;18.608;2023-06-22T11:03:24;98600.09;;;36.19
11926;BMP180;6022;48.768;18.608;2023-06-22T11:05:51;98603.84;;;36.27
11926;BMP180;6022;48.768;18.608;2023-06-22T11:08:18;98602.78;;;36.69
11926;BMP180;6022;48.768;18.608;2023-06-22T11:10:46;98597.03;;;36.87
11926;BMP180;6022;48.768;18.608;2023-06-22T11:13:16;98589.47;;;36.55
11926;BMP180;6022;48.768;18.608;2023-06-22T11:15:43;98587.78;;;36.85
11926;BMP180;6022;48.768;18.608;2023-06-22T11:18:11;98600.81;;;37.01
11926;BMP180;6022;48.768;18.608;2023-06-22T11:20:38;98588.81;;;36.79
11926;BMP180;6022;48.768;18.608;2023-06-22T11:23:06;98583.03;;;36.92
11926;BMP180;6022;48.768;18.608;2023-06-22T11:25:34;98586.66;;;36.71
11926;BMP180;6022;48.768;18.608;2023-06-22T11:28:05;98585.91;;;36.80
11926;BMP180;6022;48.768;18.608;2023-06-22T11:30:32;98581.09;;;36.72
11926;BMP180;6022;48.768;18.608;2023-06-22T11:33:01;98589.34;;;36.81
11926;BMP180;6022;48.768;18.608;2023-06-22T11:35:28;98576.00;;;36.56
11926;BMP180;6022;48.768;18.608;2023-06-22T11:37:55;98583.47;;;36.64
11926;BMP180;6022;48.768;18.608;2023-06-22T11:40:23;98571.19;;;36.12
11926;BMP180;6022;48.768;18.608;2023-06-22T11:42:50;98576.22;;;36.50
11926;BMP180;6022;48.768;18.608;2023-06-22T11:45:18;98576.56;;;36.63
11926;BMP180;6022;48.768;18.608;2023-06-22T11:47:47;98572.22;;;36.47
11926;BMP180;6022;48.768;18.608;2023-06-22T11:50:15;98570.41;;;36.53
11926;BMP180;6022;48.768;18.608;2023-06-22T11:52:42;98555.63;;;36.57
11926;BMP180;6022;48.768;18.608;2023-06-22T11:55:09;98556.47;;;36.62
11926;BMP180;6022;48.768;18.608;2023-06-22T11:57:38;98559.19;;;36.77
11926;BMP180;6022;48.768;18.608;2023-06-22T12:00:06;98549.53;;;36.56
11926;BMP180;6022;48.768;18.608;2023-06-22T12:02:45;98549.72;;;36.40
11926;BMP180;6022;48.768;18.608;2023-06-22T12:05:12;98547.63;;;36.42
11926;BMP180;6022;48.768;18.608;2023-06-22T12:07:39;98551.25;;;36.31
11926;BMP180;6022;48.768;18.608;2023-06-22T12:10:07;98546.00;;;36.36
11926;BMP180;6022;48.768;18.608;2023-06-22T12:12:34;98542.53;;;36.30
11926;BMP180;6022;48.768;18.608;2023-06-22T12:15:02;98529.13;;;36.01
11926;BMP180;6022;48.768;18.608;2023-06-22T12:17:31;98525.59;;;35.86
11926;BMP180;6022;48.768;18.608;2023-06-22T12:19:58;98531.56;;;36.07
11926;BMP180;6022;48.768;18.608;2023-06-22T12:22:26;98532.63;;;36.16
11926;BMP180;6022;48.768;18.608;2023-06-22T12:24:53;98531.38;;;36.19
11926;BMP180;6022;48.768;18.608;2023-06-22T12:27:20;98532.22;;;36.29
11926;BMP180;6022;48.768;18.608;2023-06-22T12:29:48;98528.00;;;36.33
11926;BMP180;6022;48.768;18.608;2023-06-22T12:32:15;98527.72;;;36.25
11926;BMP180;6022;48.768;18.608;2023-06-22T12:34:44;98524.38;;;35.67
11926;BMP180;6022;48.768;18.608;2023-06-22T12:37:14;98520.16;;;35.71
11926;BMP180;6022;48.768;18.608;2023-06-22T12:39:41;98530.13;;;35.59
11926;BMP180;6022;48.768;18.608;2023-06-22T12:42:09;98520.97;;;35.40
11926;BMP180;6022;48.768;18.608;2023-06-22T12:44:39;98517.16;;;35.26
11926;BMP180;6022;48.768;18.608;2023-06-22T12:47:08;98518.59;;;35.12
11926;BMP180;6022;48.768;18.608;2023-06-22T12:49:37;98508.38;;;34.95
11926;BMP180;6022;48.768;18.608;2023-06-22T12:52:09;98522.44;;;34.79
11926;BMP180;6022;48.768;18.608;2023-06-22T12:54:37;98515.44;;;34.68
11926;BMP180;6022;48.768;18.608;2023-06-22T12:57:20;98517.59;;;34.71
11926;BMP180;6022;48.768;18.608;2023-06-22T12:59:48;98510.47;;;34.71
11926;BMP180;6022;48.768;18.608;2023-06-22T13:02:15;98499.56;;;34.63
11926;BMP180;6022;48.768;18.608;2023-06-22T13:04:42;98506.00;;;34.51
11926;BMP180;6022;48.768;18.608;2023-06-22T13:07:10;98500.97;;;34.49
11926;BMP180;6022;48.768;18.608;2023-06-22T13:09:40;98494.84;;;34.44
11926;BMP180;6022;48.768;18.608;2023-06-22T13:12:08;98505.56;;;34.37
11926;BMP180;6022;48.768;18.608;2023-06-22T13:14:35;98502.72;;;34.39
11926;BMP180;6022;48.768;18.608;2023-06-22T13:17:03;98489.28;;;34.40
11926;BMP180;6022;48.768;18.608;2023-06-22T13:19:32;98485.47;;;33.94
11926;BMP180;6022;48.768;18.608;2023-06-22T13:22:00;98485.00;;;33.81
11926;BMP180;6022;48.768;18.608;2023-06-22T13:24:27;98485.28;;;34.00
11926;BMP180;6022;48.768;18.608;2023-06-22T13:26:54;98482.72;;;34.05
11926;BMP180;6022;48.768;18.608;2023-06-22T13:29:22;98483.84;;;34.09
11926;BMP180;6022;48.768;18.608;2023-06-22T13:31:49;98485.47;;;33.94
11926;BMP180;6022;48.768;18.608;2023-06-22T13:34:19;98484.06;;;34.08
11926;BMP180;6022;48.768;18.608;2023-06-22T13:36:47;98479.22;;;34.00
11926;BMP180;6022;48.768;18.608;2023-06-22T13:39:14;98476.91;;;34.03
11926;BMP180;6022;48.768;18.608;2023-06-22T13:41:41;98475.53;;;34.01
11926;BMP180;6022;48.768;18.608;2023-06-22T13:44:10;98475.81;;;33.99
11926;BMP180;6022;48.768;18.608;2023-06-22T13:46:37;98473.41;;;33.98
11926;BMP180;6022;48.768;18.608;2023-06-22T13:49:05;98479.69;;;33.97
11926;BMP180;6022;48.768;18.608;2023-06-22T13:51:32;98467.09;;;33.99
11926;BMP180;6022;48.768;18.608;2023-06-22T13:53:59;98469.66;;;33.94
11926;BMP180;6022;48.768;18.608;2023-06-22T13:56:30;98472.84;;;33.80
11926;BMP180;6022;48.768;18.608;2023-06-22T13:58:57;98473.59;;;33.75
11926;BMP180;6022;48.768;18.608;2023-06-22T14:01:24;98469.53;;;33.68
11926;BMP180;6022;48.768;18.608;2023-06-22T14:03:52;98471.38;;;33.67
11926;BMP180;6022;48.768;18.608;2023-06-22T14:06:19;98469.66;;;33.78
11926;BMP180;6022;48.768;18.608;2023-06-22T14:08:49;98477.25;;;33.74
11926;BMP180;6022;48.768;18.608;2023-06-22T14:11:17;98471.06;;;33.64
11926;BMP180;6022;48.768;18.608;2023-06-22T14:13:45;98475.75;;;33.62
11926;BMP180;6022;48.768;18.608;2023-06-22T14:16:12;98469.53;;;33.52
11926;BMP180;6022;48.768;18.608;2023-06-22T14:18:39;98466.19;;;33.40
11926;BMP180;6022;48.768;18.608;2023-06-22T14:21:07;98468.72;;;33.35
11926;BMP180;6022;48.768;18.608;2023-06-22T14:23:35;98464.50;;;33.34
11926;BMP180;6022;48.768;18.608;2023-06-22T14:26:03;98458.03;;;33.25
11926;BMP180;6022;48.768;18.608;2023-06-22T14:28:31;98445.91;;;33.24
11926;BMP180;6022;48.768;18.608;2023-06-22T14:30:58;98456.59;;;33.17
11926;BMP180;6022;48.768;18.608;2023-06-22T14:33:36;98461.28;;;33.16
11926;BMP180;6022;48.768;18.608;2023-06-22T14:36:08;98452.59;;;33.15
11926;BMP180;6022;48.768;18.608;2023-06-22T14:38:45;98452.06;;;33.13
11926;BMP180;6022;48.768;18.608;2023-06-22T14:41:23;98444.63;;;33.10
11926;BMP180;6022;48.768;18.608;2023-06-22T14:43:53;98448.91;;;33.00
11926;BMP180;6022;48.768;18.608;2023-06-22T14:46:29;98452.72;;;32.92
11926;BMP180;6022;48.768;18.608;2023-06-22T14:49:08;98445.53;;;32.88
11926;BMP180;6022;48.768;18.608;2023-06-22T14:51:41;98455.66;;;32.96
11926;BMP180;6022;48.768;18.608;2023-06-22T14:54:24;98446.22;;;32.95
11926;BMP180;6022;48.768;18.608;2023-06-22T14:57:40;98450.00;;;32.87
11926;BMP180;6022;48.768;18.608;2023-06-22T15:00:13;98434.03;;;32.78
11926;BMP180;6022;48.768;18.608;2023-06-22T15:02:51;98441.44;;;32.80
11926;BMP180;6022;48.768;18.608;2023-06-22T15:05:48;98436.47;;;32.68
11926;BMP180;6022;48.768;18.608;2023-06-22T15:08:46;98432.59;;;32.70
11926;BMP180;6022;48.768;18.608;2023-06-22T15:11:14;98424.28;;;32.62